Fort Worth Nas Jrb,Carswell field Fort Worth US
ICAO: KNFW
IATA: NFW
Category: Medium
Scheduled Services: No

Elevation: 650 ft
TransAlt. 18000 ft.

Airport Communications:
RGNL APP/DEP:125.8
NAVY FORT WORTH ARR:128.775
ATIS:27.357
NAVY FORT WORTH GND:126.4
LOCKHEED:28.41
BASE OPS:29.177
PMSV METRO:34.255
NAVY FORT WORTH TWR:120.95

KNFW Zoom In..

If you have problems with the map follow the link
https://www.worldairports.se/pages/airport.php?
ICAO=KNFW

Runways:

(A) RW 17 length 12000 ft width 200 ft
ILS 108.70 / hdg 174

(B) RW 35 length 12000 ft width 200 ft
ILS 109.30 / hdg 354

Location; KNFW
Day. 14 / Time. 21.19 Zulu
* Altimeter: 30.04
* Temperature: 09° c. 48.2°f.
* Wind from: 340° Speed 17 kn with Gusts up to 24 kn.
Dewpoint: 06° c.
Visibility: 10 Statute Miles.
Clouds: Overcast 1400 ft.

KNFW 142119Z 34017G24KT 10SM OVC014 09/06 A3004 RMK AO2 T00890056 VISNO N $


Wind From 340°
Speed 17 kn.

 
 
jpsmedia.com for Web Design worldairports.se 2018   terms of use